Terminal Aerodrome Forecast
Issued by NWS Jackson, MS

Current Version | Previous Version | Text Only | Print | Product List | Glossary On
Versions: 1 2 3 4 5 6 7 8 9 10 11 12
865
FTUS44 KJAN 292320
TAFGWO
TAF
KGWO 292320Z 3000/3024 17011G20KT P6SM SCT050 BKN250
     FM300600 17013KT 5SM -TSRA SCT015 BKN025CB BKN250
     FM301000 17011KT 5SM -TSRA BKN015CB OVC050
     FM301300 20012G21KT 6SM -SHRA VCTS SCT015 BKN025CB BKN250
     FM301600 22012KT P6SM VCTS SCT020 BKN030CB=

USA.gov is the U.S. government's official web portal to all federal, state and local government web resources and services.